Time;durP1;ratioP1;P1;durP2;ratioP2;P2;SDS_P1;SDS_P2;PMS_P1;PMS_P2;Temp;Humidity;BMP_temperature;BMP_pressure;BME280_temperature;BME280_humidity;BME280_pressure;Samples;Min_cycle;Max_cycle;Signal;HPM_P1;HPM_P2
2022/05/29 00:02:58;;;;;;;2.13;0.80;;;15.90;43.50;;;13.58;48.94;100869.97;12243612;19;20357;-82
2022/05/29 00:07:01;;;;;;;3.67;0.80;;;15.90;43.50;;;13.70;49.08;100898.06;12244078;19;20035;-82
2022/05/29 00:11:03;;;;;;;2.80;0.80;;;15.80;43.60;;;13.39;49.12;100838.00;12242949;19;20021;-82
2022/05/29 00:15:05;;;;;;;0.93;0.80;;;15.70;43.60;;;13.58;49.07;100867.34;12241616;19;20014;-82
2022/05/29 00:19:07;;;;;;;0.70;0.70;;;15.80;43.70;;;13.70;49.11;100886.72;12245186;19;20352;-82
2022/05/29 00:23:09;;;;;;;1.42;0.70;;;15.80;43.70;;;13.64;49.08;100869.59;12245300;19;20024;-83
2022/05/29 00:27:11;;;;;;;2.67;0.80;;;15.80;43.70;;;13.71;49.15;100873.47;12243075;19;20018;-82
2022/05/29 00:31:14;;;;;;;1.77;0.80;;;15.80;43.80;;;13.73;48.89;100876.00;12243164;19;20022;-82
2022/05/29 00:35:15;;;;;;;4.10;1.00;;;15.90;44.00;;;13.66;49.19;100861.59;12241482;19;20375;-82
2022/05/29 00:39:17;;;;;;;2.30;0.85;;;15.80;44.20;;;13.74;49.21;100861.94;12242787;19;20007;-82
2022/05/29 00:43:19;;;;;;;1.98;0.90;;;15.70;44.30;;;13.39;49.37;100807.38;12239559;19;20014;-82
2022/05/29 00:47:23;;;;;;;0.98;0.63;;;15.90;44.50;;;13.76;49.59;100865.31;12241931;19;20474;-83
2022/05/29 00:51:25;;;;;;;4.05;1.00;;;15.90;44.60;;;13.70;49.60;100848.19;12240817;19;20034;-83
2022/05/29 00:55:31;;;;;;;3.83;0.93;;;15.80;44.60;;;13.89;49.51;100865.34;12238117;19;20018;-83
2022/05/29 00:59:33;;;;;;;2.67;1.02;;;15.90;44.60;;;13.53;49.55;100810.88;12241113;19;20014;-83
2022/05/29 01:03:36;;;;;;;1.60;0.70;;;15.70;44.50;;;13.82;49.70;100864.88;12238722;19;20017;-82
2022/05/29 01:07:38;;;;;;;2.55;1.10;;;15.70;44.50;;;13.70;49.60;100845.56;12240919;19;20041;-83
2022/05/29 01:12:00;;;;;;;3.33;0.85;;;15.80;44.50;;;13.60;49.78;100833.97;12238395;19;20010;-83
2022/05/29 01:16:20;;;;;;;3.70;1.10;;;15.80;44.60;;;13.41;49.76;100805.50;12241717;19;20011;-82
2022/05/29 01:20:49;;;;;;;2.13;1.02;;;15.90;44.30;;;13.70;49.72;100855.22;12240820;19;20014;-82
2022/05/29 01:25:27;;;;;;;1.58;1.00;;;15.80;44.40;;;13.70;49.64;100855.22;12238483;19;20014;-83
2022/05/29 01:30:03;;;;;;;1.42;0.85;;;15.80;44.30;;;13.65;49.77;100859.94;12236067;19;20011;-82
2022/05/29 01:34:26;;;;;;;3.50;1.77;;;15.80;44.60;;;13.61;49.84;100853.19;12239433;19;20015;-82
2022/05/29 01:38:52;;;;;;;1.25;1.05;;;15.70;44.40;;;13.48;49.82;100834.81;12238935;19;20022;-83
2022/05/29 01:43:42;;;;;;;1.60;0.80;;;15.70;44.60;;;13.57;49.50;100852.56;12239493;19;20022;-82
2022/05/29 01:48:04;;;;;;;2.28;1.35;;;15.70;44.40;;;13.44;49.81;100838.56;12237684;19;20299;-82
2022/05/29 01:52:15;;;;;;;1.67;0.77;;;15.40;44.20;;;13.34;49.82;100832.22;12239330;19;20028;-83
2022/05/29 01:56:28;;;;;;;1.00;0.70;;;15.50;44.40;;;13.24;50.04;100814.44;12243408;19;20025;-82
2022/05/29 02:00:29;;;;;;;3.42;0.98;;;15.60;44.50;;;13.33;49.81;100831.38;12250731;19;20040;-83
2022/05/29 02:04:34;;;;;;;1.67;1.00;;;15.60;44.40;;;13.38;49.81;100839.81;12246432;19;20381;-83
2022/05/29 02:09:00;;;;;;;1.48;0.82;;;15.60;44.60;;;13.44;50.04;100838.56;12249993;19;20038;-83
2022/05/29 02:13:10;;;;;;;2.72;0.90;;;15.60;44.50;;;13.46;49.72;100849.81;12247770;19;20018;-83
2022/05/29 02:17:23;;;;;;;3.70;2.03;;;15.50;44.40;;;13.40;49.87;100835.31;12250734;19;20019;-83
2022/05/29 02:21:32;;;;;;;2.17;0.82;;;15.40;44.60;;;13.36;49.92;100828.56;12248867;19;20019;-82
2022/05/29 02:25:37;;;;;;;0.88;0.70;;;15.60;44.40;;;13.34;49.84;100827.84;12244745;19;20018;-82
2022/05/29 02:29:39;;;;;;;1.30;0.77;;;15.50;44.40;;;13.32;49.87;100834.97;12249208;19;20074;-83
2022/05/29 02:34:11;;;;;;;2.33;0.80;;;15.50;44.30;;;13.32;50.00;100842.84;12245712;19;20014;-82
2022/05/29 02:38:36;;;;;;;0.82;0.73;;;15.50;44.50;;;13.13;50.01;100802.97;12249930;19;20010;-82
2022/05/29 02:43:06;;;;;;;0.93;0.75;;;15.40;44.30;;;13.27;50.13;100837.03;12248152;19;20025;-82
2022/05/29 02:47:38;;;;;;;2.10;0.80;;;15.40;44.50;;;13.28;50.01;100843.97;12248245;19;20078;-82
2022/05/29 02:51:56;;;;;;;2.13;0.73;;;15.40;44.60;;;13.24;50.02;100831.97;12249328;19;20007;-83
2022/05/29 02:55:58;;;;;;;1.42;0.70;;;15.40;44.50;;;13.10;50.05;100819.75;12247084;19;20022;-82
2022/05/29 03:00:11;;;;;;;1.65;0.70;;;15.30;44.40;;;12.98;50.06;100799.56;12250991;19;20022;-82
2022/05/29 03:04:36;;;;;;;1.50;1.20;;;15.30;44.40;;;13.17;50.06;100838.53;12245581;19;20399;-82
2022/05/29 03:09:05;;;;;;;3.92;1.10;;;15.30;44.50;;;13.09;49.95;100823.28;12243914;19;20015;-82
2022/05/29 03:13:34;;;;;;;2.50;0.80;;;15.30;44.50;;;12.89;50.13;100797.53;12244903;19;20048;-82
2022/05/29 03:18:06;;;;;;;1.95;0.90;;;15.30;44.40;;;13.06;50.18;100840.06;12245476;19;20022;-82
2022/05/29 03:22:46;;;;;;;1.75;0.70;;;15.20;44.50;;;13.05;50.06;100833.16;12246231;19;20014;-82
2022/05/29 03:27:06;;;;;;;2.28;0.85;;;15.20;44.50;;;12.86;50.29;100810.84;12242184;19;20010;-82
2022/05/29 03:31:15;;;;;;;0.90;0.65;;;15.10;44.40;;;13.00;50.06;100840.47;12245778;19;20368;-82
2022/05/29 03:35:43;;;;;;;2.45;0.82;;;15.00;44.50;;;12.60;50.23;100774.00;12241349;19;20010;-82
2022/05/29 03:39:45;;;;;;;2.42;0.80;;;15.10;44.50;;;13.03;50.12;100836.81;12245880;19;20083;-83
2022/05/29 03:43:46;;;;;;;0.75;0.75;;;15.20;44.50;;;12.99;50.04;100833.53;12243128;19;20015;-82
2022/05/29 03:47:48;;;;;;;1.88;1.10;;;15.10;44.40;;;12.62;50.15;100765.09;12244480;19;20006;-82
2022/05/29 03:51:50;;;;;;;2.03;1.20;;;15.00;44.40;;;13.03;50.13;100831.56;12242403;19;20040;-83
2022/05/29 03:55:52;;;;;;;4.18;1.20;;;15.10;44.50;;;12.99;49.82;100822.22;12243393;19;20018;-82
2022/05/29 03:59:54;;;;;;;1.13;1.00;;;15.20;44.50;;;12.94;50.21;100814.66;12244375;19;20007;-82
2022/05/29 04:03:56;;;;;;;4.05;0.90;;;15.20;44.80;;;12.76;50.11;100787.81;12241611;19;20014;-82
2022/05/29 04:12:18;;;;;;;2.13;1.35;;;15.10;44.50;;;13.02;50.23;100835.13;12242273;19;20010;-82
2022/05/29 04:16:20;;;;;;;2.63;1.17;;;15.10;44.50;;;12.69;50.20;100788.28;12243304;19;20093;-82
2022/05/29 04:20:22;;;;;;;2.83;1.33;;;15.10;44.50;;;12.90;50.19;100814.94;12244240;19;20037;-82
2022/05/29 04:24:24;;;;;;;1.08;0.98;;;15.00;44.50;;;12.96;50.10;100835.50;12243495;19;20051;-82
2022/05/29 04:28:25;;;;;;;1.45;1.08;;;15.10;44.60;;;12.55;50.38;100757.72;12241176;19;20015;-82
2022/05/29 04:36:47;;;;;;;1.45;1.10;;;15.10;44.70;;;12.98;50.17;100816.13;12240874;19;20038;-82
2022/05/29 04:40:49;;;;;;;1.95;1.00;;;15.10;44.80;;;12.80;50.17;100781.44;12242691;19;20018;-82
2022/05/29 04:44:51;;;;;;;3.15;0.95;;;15.00;44.80;;;13.05;50.41;100825.28;12239265;19;20461;-82
2022/05/29 04:48:53;;;;;;;2.10;1.10;;;15.20;44.90;;;12.77;50.42;100775.53;12243423;19;20029;-83
2022/05/29 04:52:54;;;;;;;2.60;1.35;;;14.90;45.00;;;12.91;50.41;100793.00;12238631;19;20053;-82
2022/05/29 04:56:56;;;;;;;1.90;1.23;;;15.00;44.90;;;13.10;50.53;100814.50;12240944;19;20029;-82
2022/05/29 05:01:01;;;;;;;0.88;0.82;;;15.20;45.10;;;13.15;50.47;100828.16;12240634;19;20007;-82
2022/05/29 05:05:04;;;;;;;2.70;1.13;;;15.20;45.10;;;13.13;50.52;100827.41;12240007;19;20017;-82
2022/05/29 05:09:06;;;;;;;2.13;0.88;;;15.30;45.10;;;13.17;50.56;100823.63;12240523;19;20244;-83
2022/05/29 05:13:08;;;;;;;1.27;1.02;;;15.60;45.20;;;13.07;50.50;100810.28;12238853;19;20349;-82
2022/05/29 05:17:10;;;;;;;1.05;0.73;;;15.10;45.10;;;13.12;50.39;100802.13;12240484;19;20018;-83
2022/05/29 05:21:11;;;;;;;1.05;0.75;;;15.30;45.30;;;13.24;50.56;100817.06;12239625;19;20022;-84
2022/05/29 05:25:14;;;;;;;0.60;0.60;;;15.30;45.20;;;13.08;50.54;100792.78;12240020;19;20029;-84
2022/05/29 05:29:16;;;;;;;2.47;0.88;;;15.40;45.30;;;13.09;50.67;100781.34;12239845;19;20044;-85
2022/05/29 05:33:17;;;;;;;1.80;0.90;;;15.40;45.30;;;13.30;50.66;100812.41;12248450;19;20006;-85
2022/05/29 05:37:19;;;;;;;1.98;0.90;;;15.30;45.20;;;13.33;50.62;100820.06;12251076;19;20014;-84
2022/05/29 05:41:22;;;;;;;1.48;0.85;;;15.40;45.20;;;13.34;50.69;100817.34;12253346;19;20840;-86
2022/05/29 05:45:23;;;;;;;0.98;0.75;;;15.50;45.30;;;13.26;50.72;100807.34;12247621;19;20476;-85
2022/05/29 05:49:25;;;;;;;1.30;0.70;;;15.30;45.40;;;13.40;50.80;100816.13;12252509;19;20037;-83
2022/05/29 05:53:27;;;;;;;1.58;0.90;;;15.50;45.60;;;13.41;50.75;100815.16;12245935;19;20011;-84
2022/05/29 05:57:28;;;;;;;1.90;0.98;;;15.40;45.60;;;13.50;50.82;100810.16;12249571;19;20018;-83
2022/05/29 06:01:30;;;;;;;1.10;0.90;;;15.60;45.80;;;13.62;50.93;100820.78;12251681;19;20042;-84
2022/05/29 06:05:32;;;;;;;3.45;1.02;;;15.70;45.80;;;13.35;50.85;100769.19;12244738;19;20073;-80
2022/05/29 06:09:34;;;;;;;5.40;1.05;;;15.70;45.80;;;13.71;50.92;100820.16;12251055;19;20014;-81
2022/05/29 06:13:36;;;;;;;3.42;1.45;;;15.70;45.90;;;13.72;51.09;100816.59;12245642;19;20019;-80
2022/05/29 06:17:37;;;;;;;1.05;0.60;;;15.80;45.70;;;13.79;50.95;100817.84;12249152;19;20514;-83
2022/05/29 06:21:39;;;;;;;2.65;1.27;;;15.80;45.90;;;13.84;50.99;100830.69;12249226;19;20488;-82
2022/05/29 06:25:41;;;;;;;3.22;1.02;;;15.90;45.70;;;13.79;50.96;100823.09;12248672;19;20013;-81
2022/05/29 06:29:43;;;;;;;3.65;1.27;;;15.90;45.70;;;13.85;50.75;100834.97;12248898;19;20014;-84
2022/05/29 06:33:45;;;;;;;2.20;0.98;;;15.80;45.70;;;13.86;51.04;100823.53;12244963;19;20011;-83
2022/05/29 06:37:47;;;;;;;2.42;0.88;;;15.90;45.80;;;13.87;51.04;100817.34;12248805;19;20018;-84
2022/05/29 06:41:49;;;;;;;2.58;0.68;;;16.00;45.90;;;13.90;51.04;100819.75;12248510;19;20014;-83
2022/05/29 06:46:00;;;;;;;4.20;0.80;;;16.00;45.90;;;14.00;51.09;100827.84;12249036;19;20006;-86
2022/05/29 06:50:02;;;;;;;0.88;0.70;;;16.00;45.80;;;13.95;51.15;100821.13;12248418;19;20029;-83
2022/05/29 06:54:05;;;;;;;1.42;0.90;;;16.10;45.90;;;14.06;51.07;100830.91;12245696;19;20421;-85
2022/05/29 06:58:07;;;;;;;1.17;0.85;;;16.30;46.00;;;14.10;51.16;100829.75;12248496;19;20340;-84
2022/05/29 07:10:49;;;;;;;2.90;1.00;;;16.40;46.00;;;14.41;50.91;100846.03;12246780;19;20018;-82
2022/05/29 07:15:01;;;;;;;4.38;1.40;;;16.30;45.90;;;14.43;50.90;100845.94;12243501;19;20014;-82
2022/05/29 07:19:04;;;;;;;4.80;0.90;;;16.20;45.80;;;14.37;51.00;100818.28;12246186;19;20006;-81
2022/05/29 07:23:06;;;;;;;1.50;1.00;;;16.50;45.80;;;14.62;50.95;100848.16;12244655;19;20018;-81
2022/05/29 07:27:08;;;;;;;2.05;0.80;;;16.50;45.90;;;14.66;50.97;100839.06;12245897;19;20018;-82
2022/05/29 07:31:09;;;;;;;2.47;0.80;;;16.50;45.80;;;14.73;50.92;100851.69;12244941;19;20018;-82
2022/05/29 07:35:11;;;;;;;2.13;1.05;;;16.70;45.70;;;14.64;50.88;100830.50;12236827;19;20073;-82
2022/05/29 07:39:13;;;;;;;3.47;0.90;;;16.70;45.70;;;14.73;50.93;100832.44;12243643;19;20046;-81
2022/05/29 07:43:22;;;;;;;4.07;1.52;;;16.80;45.70;;;14.71;50.95;100824.66;12240154;19;20026;-82
2022/05/29 07:47:28;;;;;;;1.60;1.42;;;16.80;45.60;;;14.67;50.96;100823.22;12244155;19;20037;-82
2022/05/29 07:51:30;;;;;;;2.85;1.52;;;16.70;45.50;;;14.74;50.95;100832.34;12239542;19;20017;-81
2022/05/29 07:55:32;;;;;;;1.75;0.93;;;16.80;45.60;;;14.79;51.03;100837.25;12235669;19;20357;-83
2022/05/29 07:59:33;;;;;;;4.00;1.13;;;16.90;45.60;;;14.83;50.77;100841.38;12241274;19;20085;-83
2022/05/29 08:03:35;;;;;;;1.45;0.80;;;16.80;45.50;;;14.93;50.84;100852.91;12239806;19;20010;-83
2022/05/29 08:07:37;;;;;;;2.15;1.10;;;16.90;45.50;;;14.88;50.86;100825.25;12232613;19;20475;-83
2022/05/29 08:11:39;;;;;;;1.83;1.20;;;17.00;45.50;;;14.81;50.83;100806.47;12237812;19;20042;-82
2022/05/29 08:15:41;;;;;;;3.38;1.02;;;17.00;45.60;;;15.14;50.76;100840.00;12237256;19;20021;-82
2022/05/29 08:19:42;;;;;;;3.10;0.88;;;17.10;45.80;;;15.05;50.66;100804.69;12232904;19;20026;-83
2022/05/29 08:30:37;;;;;;;0.93;0.88;;;17.00;45.50;;;15.24;50.84;100816.50;12238359;19;20018;-82
2022/05/29 08:32:27;;;;;;;0.82;0.70;;;17.40;45.50;;;15.47;50.61;100830.56;12234649;19;20531;-83
2022/05/29 08:36:29;;;;;;;1.88;1.00;;;17.40;45.10;;;15.49;50.53;100824.25;12236507;19;20472;-83
2022/05/29 08:40:32;;;;;;;1.63;0.95;;;17.50;45.00;;;15.54;50.69;100821.28;12237529;19;20035;-83
2022/05/29 08:44:48;;;;;;;3.00;1.58;;;17.60;45.10;;;15.68;50.79;100829.00;12237139;19;20433;-83
2022/05/29 08:48:53;;;;;;;1.77;1.00;;;17.70;45.60;;;15.64;50.71;100824.91;12238531;19;20025;-83
2022/05/29 08:53:04;;;;;;;2.33;1.00;;;17.70;45.60;;;15.62;50.88;100834.72;12234582;19;20046;-83
2022/05/29 08:57:29;;;;;;;1.42;0.70;;;17.80;46.00;;;15.63;51.04;100854.81;12237005;19;20639;-85
2022/05/29 09:02:11;;;;;;;0.70;0.70;;;17.70;45.80;;;15.58;51.13;100851.69;12237482;19;20022;-83
2022/05/29 09:06:51;;;;;;;2.42;1.00;;;17.60;46.20;;;15.05;51.29;100770.50;12233615;19;20375;-83
2022/05/29 09:10:59;;;;;;;1.58;0.82;;;17.70;46.30;;;15.55;51.36;100843.16;12236017;19;20025;-84
2022/05/29 09:15:12;;;;;;;1.50;0.82;;;17.60;46.50;;;15.64;51.67;100843.34;12232892;19;20018;-83
2022/05/29 09:19:43;;;;;;;0.82;0.80;;;17.70;46.90;;;15.78;51.35;100852.03;12235660;19;20010;-82
2022/05/29 09:24:18;;;;;;;1.30;1.08;;;17.70;47.10;;;15.90;51.32;100837.91;12232290;19;20022;-84
2022/05/29 09:28:36;;;;;;;0.98;0.80;;;17.80;46.40;;;15.83;51.26;100807.75;12233371;19;20014;-86
2022/05/29 09:32:50;;;;;;;2.17;0.93;;;17.90;46.20;;;16.01;50.94;100826.56;12232498;19;20018;-83
2022/05/29 09:37:30;;;;;;;1.05;0.77;;;18.00;46.00;;;16.06;50.87;100827.06;12236356;19;20470;-84
2022/05/29 09:41:41;;;;;;;1.25;0.82;;;18.00;45.50;;;16.19;50.70;100838.34;12234891;19;20027;-85
2022/05/29 09:45:43;;;;;;;4.85;1.13;;;18.10;45.30;;;16.21;50.77;100823.25;12235455;19;20006;-84
2022/05/29 09:50:07;;;;;;;3.13;1.85;;;18.00;45.20;;;16.07;50.62;100797.97;12236030;19;20013;-87
2022/05/29 09:54:15;;;;;;;0.80;0.80;;;18.10;45.50;;;16.24;50.61;100804.56;12233684;19;20014;-86
2022/05/29 09:58:25;;;;;;;1.85;0.85;;;18.30;45.30;;;16.28;50.75;100777.03;12235378;19;20018;-85
2022/05/29 10:02:36;;;;;;;1.75;1.23;;;18.40;45.40;;;16.63;50.13;100804.19;12233450;19;20074;-83
2022/05/29 10:06:46;;;;;;;3.58;0.98;;;18.30;44.90;;;16.73;50.13;100795.41;12233401;19;20017;-83
2022/05/29 10:10:47;;;;;;;1.38;0.90;;;18.60;45.00;;;16.77;50.22;100788.97;12234975;19;20087;-83
2022/05/29 10:14:49;;;;;;;1.02;0.73;;;18.70;45.00;;;16.96;50.10;100812.09;12230708;19;20101;-81
2022/05/29 10:18:51;;;;;;;2.72;1.10;;;18.70;44.50;;;16.99;50.06;100816.28;12244021;19;20006;-83
2022/05/29 10:22:55;;;;;;;2.20;1.02;;;18.80;44.40;;;16.85;49.71;100800.69;12245668;19;20013;-84
2022/05/29 10:27:02;;;;;;;1.33;0.80;;;18.80;43.90;;;16.79;50.00;100797.59;12246283;19;20007;-82
2022/05/29 10:31:09;;;;;;;0.93;0.90;;;18.80;43.80;;;16.74;49.76;100802.38;12246643;19;20011;-84
2022/05/29 10:35:34;;;;;;;1.55;0.88;;;18.90;44.00;;;16.78;49.80;100803.00;12241745;19;20019;-83
2022/05/29 10:39:36;;;;;;;1.80;1.30;;;18.80;43.90;;;16.46;49.90;100740.47;12244634;19;20046;-83
2022/05/29 10:43:46;;;;;;;1.38;1.10;;;18.80;44.70;;;16.87;49.84;100801.41;12243513;19;20018;-85
2022/05/29 10:48:02;;;;;;;2.05;0.93;;;18.90;44.30;;;17.02;49.70;100806.31;12244245;19;20070;-83
2022/05/29 10:52:20;;;;;;;2.60;1.00;;;18.90;44.00;;;17.01;49.53;100809.06;12244348;19;20029;-82
2022/05/29 10:56:46;;;;;;;0.75;0.75;;;19.00;43.90;;;17.02;49.54;100811.56;12245457;19;20014;-85
2022/05/29 11:05:50;;;;;;;1.25;0.80;;;19.00;44.70;;;16.34;50.04;100721.19;12240497;19;20035;-86
2022/05/29 11:10:24;;;;;;;2.42;1.30;;;19.00;45.10;;;16.60;50.36;100778.91;12245804;19;20025;-83
2022/05/29 11:14:54;;;;;;;2.88;1.05;;;18.70;45.30;;;16.80;50.29;100807.19;12239665;19;20015;-81
2022/05/29 11:19:14;;;;;;;1.17;0.70;;;18.80;45.10;;;16.78;50.29;100809.09;12243773;19;20481;-82
2022/05/29 11:24:02;;;;;;;1.55;0.90;;;18.80;45.30;;;16.76;50.37;100796.97;12239585;19;20480;-82
2022/05/29 11:28:43;;;;;;;2.30;0.80;;;18.70;45.10;;;16.74;50.29;100793.63;12224502;19;20042;-81
2022/05/29 11:33:12;;;;;;;3.38;1.05;;;18.70;44.70;;;16.62;49.75;100787.53;12238509;19;20011;-81
2022/05/29 11:38:05;;;;;;;2.03;0.80;;;18.70;43.60;;;16.75;49.88;100793.50;12240528;19;20022;-81
2022/05/29 11:42:45;;;;;;;2.63;1.20;;;18.70;43.70;;;16.91;49.46;100785.22;12243634;19;20392;-82
2022/05/29 11:51:23;;;;;;;0.93;0.93;;;18.70;43.80;;;17.24;49.19;100776.34;12240107;19;20070;-82
2022/05/29 11:55:34;;;;;;;2.25;0.80;;;19.00;43.70;;;17.24;49.00;100747.31;12233857;19;20036;-82
2022/05/29 12:00:03;;;;;;;1.98;0.90;;;19.10;43.20;;;17.43;49.27;100770.38;12240460;19;20102;-82
2022/05/29 12:04:36;;;;;;;1.25;0.73;;;19.20;43.70;;;17.15;48.67;100700.59;12238999;19;20429;-81
2022/05/29 12:08:51;;;;;;;1.45;0.90;;;19.40;43.30;;;17.54;48.60;100763.38;12240247;19;20011;-82
2022/05/29 12:13:05;;;;;;;3.28;0.98;;;19.40;42.90;;;17.46;48.91;100750.81;12237826;19;20082;-81
2022/05/29 12:17:25;;;;;;;0.70;0.65;;;19.50;43.00;;;17.53;48.65;100756.44;12240293;19;20018;-81
2022/05/29 12:21:47;;;;;;;1.83;0.80;;;19.50;42.60;;;17.57;48.46;100748.09;12237914;19;20022;-81
2022/05/29 12:26:06;;;;;;;0.98;0.65;;;19.60;42.60;;;17.66;48.49;100759.69;12237313;19;20090;-80
2022/05/29 12:30:25;;;;;;;1.55;0.77;;;19.60;42.70;;;17.73;48.53;100763.50;12239177;19;20072;-80
2022/05/29 12:34:41;;;;;;;1.95;0.60;;;19.60;42.70;;;17.75;48.33;100748.34;12236010;19;20014;-79
2022/05/29 12:39:15;;;;;;;1.05;0.90;;;19.70;42.70;;;17.83;48.36;100759.13;12236361;19;20124;-81
2022/05/29 12:43:39;;;;;;;1.45;0.82;;;19.70;42.40;;;17.85;48.39;100766.94;12237942;19;20010;-79
2022/05/29 12:48:27;;;;;;;1.83;1.13;;;19.80;42.30;;;17.75;48.36;100750.16;12238369;19;20425;-80
2022/05/29 12:52:53;;;;;;;2.15;0.73;;;19.70;42.10;;;17.79;47.95;100762.16;12237439;19;20464;-81
2022/05/29 12:57:30;;;;;;;1.27;0.63;;;19.80;42.00;;;17.65;48.07;100736.88;12239484;19;20006;-81
2022/05/29 13:02:33;;;;;;;0.82;0.60;;;19.70;42.00;;;17.78;48.16;100763.09;12238627;19;20082;-80
2022/05/29 13:07:13;;;;;;;0.63;0.57;;;19.70;42.00;;;17.66;48.21;100742.06;12234334;19;20074;-80
2022/05/29 13:11:29;;;;;;;1.30;0.68;;;19.70;42.40;;;17.72;48.10;100758.34;12238655;19;20348;-81
2022/05/29 13:15:35;;;;;;;1.00;0.70;;;19.70;42.30;;;17.66;48.09;100747.34;12235569;19;20472;-80
2022/05/29 13:20:01;;;;;;;;;;;19.70;42.30;;;17.64;48.29;100738.69;12239479;19;20081;-81
2022/05/29 13:24:16;;;;;;;0.73;0.50;;;19.70;42.60;;;17.61;48.34;100727.56;12237995;19;20410;-81
2022/05/29 13:28:46;;;;;;;0.77;0.60;;;19.70;42.30;;;17.85;47.87;100751.09;12237851;19;20007;-81
2022/05/29 13:32:47;;;;;;;1.38;0.70;;;19.70;42.40;;;17.81;48.08;100739.09;12236618;19;20034;-80
2022/05/29 13:36:50;;;;;;;2.10;1.10;;;19.80;42.60;;;18.01;48.03;100754.09;12238747;19;20015;-81
2022/05/29 13:41:03;;;;;;;1.27;0.63;;;19.80;42.20;;;18.06;47.73;100749.22;12238236;19;20007;-81
2022/05/29 13:45:43;;;;;;;0.50;0.50;;;19.80;41.80;;;18.16;47.78;100749.28;12235548;19;20027;-80
2022/05/29 13:50:12;;;;;;;0.80;0.60;;;19.90;42.00;;;18.14;47.11;100740.63;12240833;19;20010;-81
2022/05/29 13:54:30;;;;;;;0.68;0.50;;;20.00;41.20;;;18.11;47.14;100717.94;12246179;19;20006;-80
2022/05/29 14:07:29;;;;;;;0.60;0.40;;;20.20;41.20;;;18.43;46.84;100743.38;12249920;19;20542;-81
2022/05/29 14:11:54;;;;;;;0.40;0.40;;;20.20;40.80;;;18.46;46.47;100735.16;12247742;19;20535;-80
2022/05/29 14:16:05;;;;;;;2.13;0.55;;;20.30;40.70;;;18.46;46.64;100729.88;12249467;19;20014;-81
2022/05/29 14:20:30;;;;;;;0.43;0.40;;;20.30;40.70;;;18.32;46.51;100686.16;12249540;19;20029;-80
2022/05/29 14:24:56;;;;;;;0.70;0.50;;;20.30;40.70;;;18.46;46.37;100697.31;12248164;19;20041;-80
2022/05/29 14:29:09;;;;;;;;;;;20.40;40.50;;;18.18;46.86;100635.50;12247879;19;20026;-81
2022/05/29 14:33:50;;;;;;;0.55;0.55;;;20.70;41.60;;;18.66;46.36;100703.47;12247334;19;20268;-81
2022/05/29 14:38:33;;;;;;;1.38;1.27;;;20.50;40.50;;;18.57;46.37;100679.50;12246453;19;20041;-80
2022/05/29 14:42:40;;;;;;;1.48;0.60;;;20.50;40.50;;;18.78;46.33;100691.81;12246733;19;20033;-81
2022/05/29 14:46:55;;;;;;;0.60;0.47;;;20.50;40.50;;;18.76;46.30;100664.66;12245156;19;20018;-81
2022/05/29 14:51:08;;;;;;;;;;;20.40;40.50;;;18.93;46.61;100682.50;12250294;19;20440;-80
2022/05/29 14:55:20;;;;;;;0.60;0.60;;;20.80;41.20;;;18.82;46.29;100682.59;12243520;19;19918;-81
2022/05/29 14:59:33;;;;;;;0.60;0.60;;;20.80;40.40;;;18.84;46.19;100683.31;12248223;19;20070;-80
2022/05/29 15:03:42;;;;;;;0.60;0.60;;;20.80;40.60;;;18.90;46.16;100674.84;12241817;19;20027;-80
2022/05/29 15:12:31;;;;;;;0.40;0.40;;;20.80;40.60;;;19.14;45.82;100670.91;12246581;19;20015;-81
2022/05/29 15:16:44;;;;;;;1.20;0.75;;;21.10;40.70;;;19.27;45.74;100689.97;12244177;19;20019;-81
2022/05/29 15:25:33;;;;;;;1.13;0.63;;;21.10;40.80;;;19.31;46.02;100664.91;12242653;19;20014;-81
2022/05/29 15:29:50;;;;;;;0.57;0.57;;;21.20;40.70;;;19.35;45.99;100665.44;12245451;19;20014;-82
2022/05/29 15:34:28;;;;;;;0.75;0.60;;;21.20;40.90;;;19.40;45.59;100693.16;12241774;19;20491;-81
2022/05/29 15:39:11;;;;;;;0.55;0.52;;;21.20;40.20;;;19.13;45.80;100658.66;12243121;19;20019;-82
2022/05/29 15:44:01;;;;;;;0.77;0.65;;;21.10;40.30;;;19.28;46.17;100694.31;12243351;19;20015;-81
2022/05/29 15:48:31;;;;;;;1.25;0.60;;;21.20;40.30;;;19.27;45.94;100679.38;12242725;19;20352;-81
2022/05/29 15:52:54;;;;;;;1.17;0.52;;;21.10;40.30;;;19.26;45.66;100687.47;12242875;19;20018;-82
2022/05/29 15:57:25;;;;;;;0.95;0.60;;;21.10;40.30;;;19.25;45.73;100676.03;12243511;19;20033;-81
2022/05/29 16:01:26;;;;;;;1.42;0.88;;;21.10;40.40;;;19.22;45.88;100669.19;12242080;19;20018;-81
2022/05/29 16:05:36;;;;;;;2.03;0.70;;;21.10;40.50;;;19.17;45.40;100660.88;12236406;19;20045;-82
2022/05/29 16:09:58;;;;;;;0.85;0.73;;;21.10;39.80;;;19.07;45.39;100648.63;12243233;19;20018;-81
2022/05/29 16:14:00;;;;;;;1.13;0.60;;;21.10;39.80;;;18.98;45.57;100640.56;12237362;19;20480;-80
2022/05/29 16:18:32;;;;;;;2.38;0.63;;;21.00;40.00;;;19.04;45.50;100664.78;12241905;19;20381;-81
2022/05/29 16:23:13;;;;;;;0.60;0.60;;;21.00;39.90;;;18.83;45.33;100654.38;12239898;19;20480;-81
2022/05/29 16:27:50;;;;;;;0.70;0.70;;;20.90;39.60;;;18.82;45.42;100660.63;12241675;19;20037;-81
2022/05/29 16:32:22;;;;;;;0.50;0.50;;;20.90;39.60;;;18.63;45.42;100653.47;12242263;19;20362;-81
2022/05/29 16:36:35;;;;;;;0.57;0.52;;;20.70;39.20;;;18.69;45.39;100660.88;12239710;19;20018;-81
2022/05/29 16:49:33;;;;;;;1.35;0.52;;;20.60;39.40;;;18.62;45.10;100649.19;12242193;19;20354;-81
2022/05/29 16:54:01;;;;;;;0.63;0.52;;;20.70;39.30;;;18.71;45.04;100665.06;12240293;19;20018;-81
2022/05/29 16:58:11;;;;;;;0.65;0.60;;;20.60;39.20;;;18.69;44.84;100655.59;12238095;19;20413;-81
2022/05/29 17:02:42;;;;;;;0.75;0.50;;;20.70;39.40;;;18.71;44.80;100659.78;12240632;19;20019;-81
2022/05/29 17:06:53;;;;;;;0.77;0.50;;;20.50;39.30;;;18.55;44.65;100622.44;12238707;19;20491;-81
2022/05/29 17:11:13;;;;;;;0.45;0.45;;;20.60;39.50;;;18.52;44.76;100623.56;12240042;19;20022;-81
2022/05/29 17:15:22;;;;;;;0.60;0.45;;;20.40;39.30;;;18.55;44.88;100636.50;12229335;19;20483;-81
2022/05/29 17:19:24;;;;;;;0.52;0.52;;;20.60;39.30;;;18.65;44.89;100654.19;12240215;19;20022;-81
2022/05/29 17:23:49;;;;;;;0.40;0.40;;;20.60;39.30;;;18.55;44.74;100636.50;12238102;19;20018;-80
2022/05/29 17:28:42;;;;;;;0.57;0.57;;;20.50;39.20;;;18.62;44.84;100651.81;12237752;19;20014;-81
2022/05/29 17:32:56;;;;;;;1.25;0.60;;;20.50;39.40;;;18.48;44.98;100637.19;12237365;19;20022;-80
2022/05/29 17:37:28;;;;;;;1.10;0.63;;;20.50;39.40;;;18.44;44.64;100636.63;12238698;19;20344;-80
2022/05/29 17:41:33;;;;;;;1.10;0.68;;;20.50;39.40;;;18.49;45.16;100650.25;12238090;19;20010;-81
2022/05/29 17:45:36;;;;;;;0.70;0.50;;;20.40;39.60;;;18.42;44.98;100638.59;12235103;19;20032;-81
2022/05/29 17:50:02;;;;;;;1.10;0.60;;;20.40;39.80;;;18.48;44.91;100648.59;12236467;19;20011;-80
2022/05/29 17:54:44;;;;;;;0.77;0.57;;;20.40;40.00;;;18.53;44.94;100659.63;12235917;19;20014;-82
2022/05/29 17:58:46;;;;;;;0.70;0.70;;;20.40;39.70;;;18.45;44.96;100643.59;12236813;19;20015;-81
2022/05/29 18:02:54;;;;;;;1.38;0.60;;;20.40;40.00;;;18.38;44.91;100631.88;12236244;19;20065;-83
2022/05/29 18:06:57;;;;;;;0.88;0.60;;;20.40;39.80;;;18.45;44.87;100645.41;12235842;19;20011;-82
2022/05/29 18:11:08;;;;;;;0.73;0.60;;;20.40;39.80;;;18.41;44.86;100636.91;12237216;19;20017;-82
2022/05/29 18:15:11;;;;;;;0.73;0.63;;;20.30;39.70;;;18.36;45.18;100633.81;12234956;19;20032;-82
2022/05/29 18:19:13;;;;;;;2.00;0.90;;;20.40;40.00;;;18.31;45.10;100642.19;12238143;19;20013;-82
2022/05/29 18:23:15;;;;;;;3.28;1.08;;;20.40;40.00;;;18.42;45.17;100665.03;12235945;19;20021;-82
2022/05/29 18:27:17;;;;;;;2.63;2.05;;;20.10;39.90;;;18.01;45.09;100603.47;12238882;19;20006;-82